createdAt,value
2022-10-13T00:00:14.558Z,10.63
2022-10-13T00:02:42.178Z,9.90
2022-10-13T00:05:09.580Z,10.45
2022-10-13T00:07:36.883Z,10.38
2022-10-13T00:10:04.644Z,10.18
2022-10-13T00:12:31.770Z,10.50
2022-10-13T00:14:58.920Z,10.00
2022-10-13T00:17:26.116Z,10.00
2022-10-13T00:19:53.397Z,10.18
2022-10-13T00:22:21.025Z,10.32
2022-10-13T00:24:57.605Z,10.02
2022-10-13T00:27:24.787Z,9.98
2022-10-13T00:29:52.691Z,9.88
2022-10-13T00:32:20.508Z,11.68
2022-10-13T00:34:47.772Z,8.88
2022-10-13T00:37:14.991Z,9.30
2022-10-13T00:39:42.325Z,9.80
2022-10-13T00:42:12.700Z,9.40
2022-10-13T00:44:55.305Z,9.48
2022-10-13T00:47:22.717Z,9.55
2022-10-13T00:49:50.178Z,9.38
2022-10-13T00:52:18.506Z,10.48
2022-10-13T00:54:45.897Z,9.27
2022-10-13T00:57:13.690Z,9.73
2022-10-13T00:59:41.319Z,9.95
2022-10-13T01:02:08.625Z,10.05
2022-10-13T01:04:40.603Z,9.88
2022-10-13T01:07:08.135Z,8.88
2022-10-13T01:09:39.008Z,9.35
2022-10-13T01:12:15.045Z,10.30
2022-10-13T01:14:47.298Z,9.57
2022-10-13T01:17:28.913Z,9.23
2022-10-13T01:20:14.840Z,9.60
2022-10-13T01:22:54.284Z,10.15
2022-10-13T01:25:40.170Z,10.65
2022-10-13T01:28:16.450Z,9.82
2022-10-13T01:30:48.005Z,9.48
2022-10-13T01:33:31.876Z,9.13
2022-10-13T01:35:59.000Z,9.80
2022-10-13T01:38:30.947Z,9.30
2022-10-13T01:40:58.053Z,9.95
2022-10-13T01:43:29.646Z,9.90
2022-10-13T01:45:59.601Z,9.70
2022-10-13T01:48:27.868Z,9.60
2022-10-13T01:50:56.352Z,9.88
2022-10-13T01:53:24.206Z,10.00
2022-10-13T01:55:56.013Z,9.55
2022-10-13T01:58:24.528Z,8.75
2022-10-13T02:01:01.013Z,9.90
2022-10-13T02:03:34.280Z,9.60
2022-10-13T02:06:01.404Z,9.68
2022-10-13T02:08:40.271Z,9.60
2022-10-13T02:11:16.448Z,10.05
2022-10-13T02:13:52.866Z,9.90
2022-10-13T02:16:23.438Z,9.30
2022-10-13T02:18:51.055Z,9.85
2022-10-13T02:21:18.795Z,9.23
2022-10-13T02:23:46.534Z,8.85
2022-10-13T02:26:13.885Z,9.18
2022-10-13T02:28:41.569Z,9.32
2022-10-13T02:31:09.600Z,9.32
2022-10-13T02:33:36.809Z,8.75
2022-10-13T02:36:04.301Z,8.98
2022-10-13T02:38:31.507Z,9.38
2022-10-13T02:40:59.089Z,9.20
2022-10-13T02:43:26.317Z,8.70
2022-10-13T02:45:53.449Z,8.57
2022-10-13T02:48:20.609Z,9.35
2022-10-13T02:50:47.933Z,8.93
2022-10-13T02:53:15.598Z,8.88
2022-10-13T02:55:42.797Z,9.38
2022-10-13T02:58:09.961Z,8.80
2022-10-13T03:00:39.938Z,8.48
2022-10-13T03:03:07.416Z,8.50
2022-10-13T03:05:35.009Z,9.40
2022-10-13T03:08:02.161Z,8.20
2022-10-13T03:10:30.984Z,9.07
2022-10-13T03:12:58.625Z,8.90
2022-10-13T03:15:25.788Z,9.18
2022-10-13T03:17:52.964Z,8.98
2022-10-13T03:20:20.358Z,8.93
2022-10-13T03:22:49.904Z,7.95
2022-10-13T03:25:17.537Z,8.57
2022-10-13T03:27:44.690Z,8.80
2022-10-13T03:30:12.060Z,8.75
2022-10-13T03:32:40.852Z,8.05
2022-10-13T03:35:08.459Z,8.70
2022-10-13T03:37:35.635Z,8.90
2022-10-13T03:40:02.820Z,8.98
2022-10-13T03:42:30.037Z,8.32
2022-10-13T03:44:57.166Z,8.40
2022-10-13T03:47:24.341Z,8.02
2022-10-13T03:49:55.292Z,8.45
2022-10-13T03:52:23.084Z,8.38
2022-10-13T03:54:50.423Z,9.82
2022-10-13T03:57:17.559Z,8.02
2022-10-13T03:59:44.805Z,8.07
2022-10-13T04:02:12.007Z,8.55
2022-10-13T04:04:39.677Z,8.45
2022-10-13T04:07:08.072Z,8.88
2022-10-13T04:09:35.557Z,8.05
2022-10-13T04:12:02.860Z,8.95
2022-10-13T04:14:30.100Z,8.23
2022-10-13T04:16:57.455Z,7.32
2022-10-13T04:19:24.629Z,9.40
2022-10-13T04:21:51.840Z,8.65
2022-10-13T04:24:19.140Z,8.98
2022-10-13T04:26:46.461Z,8.90
2022-10-13T04:29:13.725Z,8.10
2022-10-13T04:31:43.935Z,9.55
2022-10-13T04:34:11.474Z,10.43
2022-10-13T04:36:38.830Z,9.73
2022-10-13T04:39:06.104Z,10.05
2022-10-13T04:41:33.295Z,10.57
2022-10-13T04:44:02.515Z,10.10
2022-10-13T04:46:29.745Z,9.57
2022-10-13T04:48:57.150Z,10.10
2022-10-13T04:51:25.504Z,12.00
2022-10-13T04:54:01.024Z,12.70
2022-10-13T04:56:28.673Z,14.38
2022-10-13T04:58:55.895Z,18.25
2022-10-13T05:01:25.582Z,17.50
2022-10-13T05:03:57.197Z,15.73
2022-10-13T05:06:25.957Z,16.98
2022-10-13T05:08:53.290Z,16.95
2022-10-13T05:11:21.736Z,17.10
2022-10-13T05:13:49.625Z,17.67
2022-10-13T05:16:17.542Z,18.80
2022-10-13T05:18:44.726Z,19.33
2022-10-13T05:21:19.117Z,19.30
2022-10-13T05:23:46.658Z,18.10
2022-10-13T05:26:15.306Z,16.30
2022-10-13T05:28:42.778Z,18.55
2022-10-13T05:31:13.475Z,16.88
2022-10-13T05:33:40.938Z,17.40
2022-10-13T05:36:10.522Z,17.17
2022-10-13T05:38:38.535Z,17.63
2022-10-13T05:41:06.833Z,18.90
2022-10-13T05:43:34.288Z,19.60
2022-10-13T05:46:01.938Z,20.45
2022-10-13T05:48:29.666Z,17.92
2022-10-13T05:51:00.472Z,23.42
2022-10-13T05:53:29.533Z,21.73
2022-10-13T05:55:58.357Z,21.88
2022-10-13T05:58:25.696Z,22.80
2022-10-13T06:00:55.045Z,22.35
2022-10-13T06:03:23.375Z,21.23
2022-10-13T06:05:50.522Z,19.27
2022-10-13T06:08:17.713Z,23.08
2022-10-13T06:10:45.487Z,20.92
2022-10-13T06:13:12.639Z,21.88
2022-10-13T06:15:39.812Z,22.90
2022-10-13T06:18:10.657Z,21.40
2022-10-13T06:20:37.938Z,21.45
2022-10-13T06:23:05.145Z,21.05
2022-10-13T06:25:32.532Z,20.08
2022-10-13T06:28:00.536Z,19.23
2022-10-13T06:30:28.151Z,20.13
2022-10-13T06:32:56.159Z,25.90
2022-10-13T06:35:23.763Z,23.08
2022-10-13T06:37:53.065Z,21.83
2022-10-13T06:40:20.206Z,21.55
2022-10-13T06:42:51.360Z,21.77
2022-10-13T06:45:19.486Z,22.88
2022-10-13T06:47:46.959Z,22.05
2022-10-13T06:50:14.489Z,22.55
2022-10-13T06:52:43.465Z,21.67
2022-10-13T06:55:10.746Z,21.85
2022-10-13T06:57:38.296Z,20.65
2022-10-13T07:00:06.369Z,21.98
2022-10-13T07:02:33.597Z,19.45
2022-10-13T07:05:00.739Z,20.20
2022-10-13T07:07:27.891Z,20.15
2022-10-13T07:09:55.038Z,19.73
2022-10-13T07:12:22.642Z,18.52
2022-10-13T07:14:50.137Z,19.95
2022-10-13T07:17:17.607Z,18.58
2022-10-13T07:19:48.234Z,19.73
2022-10-13T07:22:15.853Z,19.42
2022-10-13T07:24:43.436Z,18.50
2022-10-13T07:27:10.607Z,19.23
2022-10-13T07:29:38.115Z,18.17
2022-10-13T07:32:06.066Z,19.13
2022-10-13T07:34:33.858Z,18.65
2022-10-13T07:37:01.040Z,18.15
2022-10-13T07:39:28.160Z,19.23
2022-10-13T07:41:55.359Z,18.70
2022-10-13T07:44:22.497Z,22.05
2022-10-13T07:46:49.700Z,20.80
2022-10-13T07:49:16.866Z,19.15
2022-10-13T07:51:44.382Z,19.77
2022-10-13T07:54:11.928Z,20.92
2022-10-13T07:56:39.079Z,19.88
2022-10-13T07:59:06.252Z,19.52
2022-10-13T08:01:33.417Z,18.85
2022-10-13T08:04:00.707Z,24.63
2022-10-13T08:06:27.892Z,22.65
2022-10-13T08:08:55.262Z,21.33
2022-10-13T08:11:22.477Z,20.63
2022-10-13T08:13:50.486Z,20.20
2022-10-13T08:16:18.272Z,21.52
2022-10-13T08:18:46.071Z,20.95
2022-10-13T08:24:01.399Z,20.55
2022-10-13T08:26:29.448Z,21.27
2022-10-13T08:29:16.646Z,19.15
2022-10-13T08:31:44.454Z,19.17
2022-10-13T08:34:12.484Z,19.52
2022-10-13T08:36:40.349Z,20.15
2022-10-13T08:39:07.585Z,19.60
2022-10-13T08:41:39.396Z,18.42
2022-10-13T08:47:33.450Z,19.27
2022-10-13T08:50:04.929Z,17.30
2022-10-13T08:52:49.629Z,17.13
2022-10-13T08:55:21.426Z,17.75
2022-10-13T08:57:48.556Z,18.00
2022-10-13T09:00:16.321Z,17.77
2022-10-13T09:02:44.998Z,16.02
2022-10-13T09:05:20.007Z,16.85
2022-10-13T09:07:47.515Z,15.80
2022-10-13T09:10:15.429Z,16.98
2022-10-13T09:12:42.713Z,16.63
2022-10-13T09:15:12.065Z,16.25
2022-10-13T09:17:40.342Z,16.08
2022-10-13T09:20:07.602Z,16.13
2022-10-13T09:22:38.984Z,16.23
2022-10-13T09:25:09.316Z,16.25
2022-10-13T09:27:42.744Z,16.20
2022-10-13T09:30:39.426Z,16.95
2022-10-13T09:35:35.039Z,16.17
2022-10-13T09:38:08.176Z,15.80
2022-10-13T09:40:35.549Z,14.65
2022-10-13T09:43:03.165Z,15.77
2022-10-13T09:45:31.137Z,15.27
2022-10-13T09:48:08.479Z,15.80
2022-10-13T09:50:36.453Z,14.07
2022-10-13T09:53:11.452Z,17.00
2022-10-13T09:55:38.888Z,14.88
2022-10-13T09:58:08.208Z,16.30
2022-10-13T10:00:35.965Z,15.57
2022-10-13T10:03:16.710Z,15.77
2022-10-13T10:06:03.930Z,16.42
2022-10-13T10:09:06.323Z,15.55
2022-10-13T10:11:44.334Z,17.15
2022-10-13T10:14:23.563Z,17.65
2022-10-13T10:17:03.784Z,20.25
2022-10-13T10:19:45.390Z,20.33
2022-10-13T10:22:27.683Z,21.73
2022-10-13T10:25:13.606Z,22.05
2022-10-13T10:27:44.075Z,27.92
2022-10-13T10:30:18.916Z,27.58
2022-10-13T10:33:24.415Z,23.27
2022-10-13T10:36:07.711Z,23.13
2022-10-13T10:38:44.649Z,21.90
2022-10-13T10:41:14.923Z,21.58
2022-10-13T10:43:50.581Z,22.02
2022-10-13T10:48:53.928Z,22.73
2022-10-13T10:51:23.742Z,21.38
2022-10-13T10:53:58.649Z,22.23
2022-10-13T10:56:25.789Z,26.00
2022-10-13T10:59:02.265Z,22.35
2022-10-13T11:01:36.522Z,21.40
2022-10-13T11:04:16.063Z,22.38
2022-10-13T11:06:43.217Z,22.10
2022-10-13T11:09:12.195Z,20.02
2022-10-13T11:11:40.155Z,21.63
2022-10-13T11:14:07.599Z,22.30
2022-10-13T11:16:42.062Z,20.83
2022-10-13T11:19:09.309Z,21.13
2022-10-13T11:22:02.917Z,21.00
2022-10-13T11:24:38.054Z,19.98
2022-10-13T11:27:17.498Z,20.20
2022-10-13T11:29:45.646Z,20.77
2022-10-13T11:32:30.685Z,19.30
2022-10-13T11:35:07.881Z,21.10
2022-10-13T11:37:55.832Z,19.92
2022-10-13T11:40:36.027Z,20.42
2022-10-13T11:43:05.162Z,19.92
2022-10-13T11:45:40.819Z,19.70
2022-10-13T11:48:11.277Z,20.20
2022-10-13T11:50:44.796Z,18.80
2022-10-13T11:53:12.331Z,19.35
2022-10-13T11:55:46.395Z,18.08
2022-10-13T11:58:13.517Z,19.52
2022-10-13T12:00:50.001Z,19.02
2022-10-13T12:03:21.768Z,19.08
2022-10-13T12:05:53.761Z,20.50
2022-10-13T12:08:28.405Z,20.38
2022-10-13T12:10:58.795Z,18.55
2022-10-13T12:13:30.835Z,18.90
2022-10-13T12:16:00.021Z,20.88
2022-10-13T12:18:29.977Z,19.92
2022-10-13T12:20:58.493Z,20.65
2022-10-13T12:23:26.891Z,24.00
2022-10-13T12:25:58.579Z,24.83
2022-10-13T12:28:27.527Z,23.73
2022-10-13T12:30:59.390Z,24.70
2022-10-13T12:33:32.544Z,26.38
2022-10-13T12:36:18.714Z,27.35
2022-10-13T12:41:13.049Z,23.98
2022-10-13T12:43:40.659Z,23.00
2022-10-13T12:46:09.524Z,23.48
2022-10-13T12:48:37.339Z,24.35
2022-10-13T12:51:23.143Z,23.20
2022-10-13T12:53:50.374Z,24.95
2022-10-13T12:56:27.462Z,22.67
2022-10-13T12:58:54.931Z,23.45
2022-10-13T13:01:27.669Z,22.63
2022-10-13T13:03:57.105Z,21.02
2022-10-13T13:06:27.839Z,22.20
2022-10-13T13:09:10.008Z,23.40
2022-10-13T13:11:38.537Z,22.15
2022-10-13T13:14:24.585Z,21.85
2022-10-13T13:17:10.190Z,22.67
2022-10-13T13:19:37.963Z,21.70
2022-10-13T13:22:06.886Z,24.13
2022-10-13T13:24:41.619Z,23.05
2022-10-13T13:27:18.716Z,18.38
2022-10-13T13:29:46.301Z,21.98
2022-10-13T13:32:14.708Z,25.88
2022-10-13T13:34:42.002Z,24.33
2022-10-13T13:37:18.435Z,23.83
2022-10-13T13:39:45.937Z,21.50
2022-10-13T13:42:16.047Z,24.75
2022-10-13T13:44:43.740Z,25.77
2022-10-13T13:47:21.885Z,22.77
2022-10-13T13:49:50.317Z,23.45
2022-10-13T13:52:18.015Z,28.17
2022-10-13T13:54:45.548Z,34.78
2022-10-13T13:57:13.787Z,38.05
2022-10-13T13:59:41.384Z,32.65
2022-10-13T14:02:12.806Z,37.13
2022-10-13T14:04:40.304Z,31.10
2022-10-13T14:07:07.436Z,30.73
2022-10-13T14:09:34.654Z,26.17
2022-10-13T14:12:02.105Z,26.63
2022-10-13T14:14:31.667Z,24.98
2022-10-13T14:16:59.820Z,27.95
2022-10-13T14:19:26.985Z,27.42
2022-10-13T14:21:54.210Z,27.45
2022-10-13T14:24:21.650Z,24.02
2022-10-13T14:26:48.825Z,26.25
2022-10-13T14:29:16.705Z,27.23
2022-10-13T14:31:44.073Z,26.17
2022-10-13T14:34:11.325Z,25.58
2022-10-13T14:36:38.513Z,26.95
2022-10-13T14:39:05.690Z,26.30
2022-10-13T14:41:32.916Z,23.73
2022-10-13T14:44:00.083Z,24.23
2022-10-13T14:46:27.285Z,23.95
2022-10-13T14:48:56.522Z,23.25
2022-10-13T14:51:24.086Z,25.67
2022-10-13T14:53:51.522Z,23.98
2022-10-13T14:56:22.801Z,25.08
2022-10-13T14:58:50.880Z,24.15
2022-10-13T15:01:18.508Z,23.42
2022-10-13T15:03:46.274Z,22.58
2022-10-13T15:06:20.308Z,24.30
2022-10-13T15:08:48.271Z,23.48
2022-10-13T15:11:15.927Z,23.45
2022-10-13T15:13:43.479Z,23.10
2022-10-13T15:16:18.518Z,25.17
2022-10-13T15:18:46.089Z,23.00
2022-10-13T15:21:14.609Z,22.77
2022-10-13T15:23:42.577Z,22.92
2022-10-13T15:26:11.055Z,22.77
2022-10-13T15:28:42.718Z,23.08
2022-10-13T15:31:10.006Z,22.10
2022-10-13T15:33:37.256Z,25.25
2022-10-13T15:36:04.618Z,22.40
2022-10-13T15:38:31.860Z,23.35
2022-10-13T15:41:03.663Z,21.55
2022-10-13T15:43:31.211Z,23.27
2022-10-13T15:46:02.580Z,23.67
2022-10-13T15:48:29.884Z,23.05
2022-10-13T15:50:57.131Z,23.83
2022-10-13T15:53:24.328Z,22.00
2022-10-13T15:55:51.460Z,22.60
2022-10-13T15:58:18.957Z,22.73
2022-10-13T16:00:46.365Z,23.67
2022-10-13T16:03:17.341Z,21.40
2022-10-13T16:05:45.530Z,21.10
2022-10-13T16:08:13.266Z,23.38
2022-10-13T16:10:41.347Z,21.42
2022-10-13T16:13:09.326Z,21.25
2022-10-13T16:15:36.486Z,21.02
2022-10-13T16:18:04.167Z,19.75
2022-10-13T16:20:37.623Z,21.80
2022-10-13T16:23:05.432Z,21.83
2022-10-13T16:25:32.673Z,20.88
2022-10-13T16:28:02.810Z,20.83
2022-10-13T16:30:30.496Z,22.10
2022-10-13T16:32:58.283Z,20.58
2022-10-13T16:35:26.663Z,22.27
2022-10-13T16:37:53.884Z,21.73
2022-10-13T16:40:21.123Z,22.13
2022-10-13T16:42:48.268Z,21.70
2022-10-13T16:45:15.440Z,22.25
2022-10-13T16:47:42.622Z,21.08
2022-10-13T16:50:09.947Z,21.13
2022-10-13T16:52:37.908Z,21.52
2022-10-13T16:55:07.247Z,19.92
2022-10-13T16:57:34.536Z,20.52
2022-10-13T17:00:02.179Z,18.63
2022-10-13T17:02:29.667Z,19.98
2022-10-13T17:04:56.947Z,19.15
2022-10-13T17:07:24.230Z,19.70
2022-10-13T17:09:51.484Z,20.23
2022-10-13T17:12:18.718Z,19.52
2022-10-13T17:14:45.847Z,18.88
2022-10-13T17:17:13.003Z,19.45
2022-10-13T17:19:40.605Z,21.17
2022-10-13T17:22:07.881Z,19.17
2022-10-13T17:24:35.240Z,19.15
2022-10-13T17:27:04.035Z,19.95
2022-10-13T17:29:31.325Z,19.73
2022-10-13T17:31:58.766Z,19.30
2022-10-13T17:34:26.906Z,20.33
2022-10-13T17:36:54.104Z,19.92
2022-10-13T17:39:21.317Z,35.80
2022-10-13T17:41:48.569Z,28.10
2022-10-13T17:44:20.395Z,26.60
2022-10-13T17:46:49.049Z,26.83
2022-10-13T17:49:16.593Z,26.25
2022-10-13T17:51:44.406Z,24.88
2022-10-13T17:54:16.191Z,28.35
2022-10-13T17:56:43.901Z,26.08
2022-10-13T17:59:11.232Z,27.52
2022-10-13T18:01:38.907Z,25.63
2022-10-13T18:04:07.397Z,26.58
2022-10-13T18:06:38.637Z,26.58
2022-10-13T18:09:10.811Z,23.65
2022-10-13T18:11:38.099Z,27.48
2022-10-13T18:14:05.805Z,25.65
2022-10-13T18:16:33.268Z,25.42
2022-10-13T18:19:00.396Z,24.17
2022-10-13T18:21:27.650Z,23.95
2022-10-13T18:23:55.684Z,22.08
2022-10-13T18:26:23.736Z,24.50
2022-10-13T18:28:51.538Z,23.30
2022-10-13T18:31:19.048Z,26.27
2022-10-13T18:33:46.669Z,25.98
2022-10-13T18:36:23.590Z,24.50
2022-10-13T18:38:51.682Z,22.02
2022-10-13T18:41:19.574Z,21.90
2022-10-13T18:43:46.735Z,25.13
2022-10-13T18:46:13.909Z,24.80
2022-10-13T18:48:41.141Z,22.33
2022-10-13T18:51:12.671Z,22.40
2022-10-13T18:53:41.570Z,24.42
2022-10-13T18:56:09.969Z,23.80
2022-10-13T18:58:37.108Z,21.90
2022-10-13T19:01:05.869Z,23.92
2022-10-13T19:03:33.811Z,26.42
2022-10-13T19:06:02.846Z,22.92
2022-10-13T19:08:30.224Z,22.40
2022-10-13T19:10:57.403Z,23.42
2022-10-13T19:13:25.606Z,23.48
2022-10-13T19:15:59.365Z,22.38
2022-10-13T19:18:26.601Z,20.63
2022-10-13T19:20:53.751Z,22.00
2022-10-13T19:23:21.960Z,23.95
2022-10-13T19:25:49.119Z,22.33
2022-10-13T19:28:16.859Z,24.65
2022-10-13T19:30:44.343Z,21.95
2022-10-13T19:33:13.080Z,21.55
2022-10-13T19:35:44.441Z,21.38
2022-10-13T19:38:11.996Z,20.45
2022-10-13T19:40:47.560Z,20.42
2022-10-13T19:43:14.747Z,23.77
2022-10-13T19:46:00.257Z,19.70
2022-10-13T19:48:27.578Z,21.90
2022-10-13T19:50:54.875Z,23.88
2022-10-13T19:53:22.232Z,23.80
2022-10-13T19:55:49.425Z,27.27
2022-10-13T19:58:17.130Z,23.30
2022-10-13T20:00:45.222Z,21.80
2022-10-13T20:03:13.518Z,21.00
2022-10-13T20:05:41.793Z,21.17
2022-10-13T20:08:10.234Z,20.92
2022-10-13T20:10:41.931Z,21.92
2022-10-13T20:13:10.483Z,21.75
2022-10-13T20:15:41.495Z,19.60
2022-10-13T20:18:09.562Z,21.20
2022-10-13T20:20:37.475Z,19.17
2022-10-13T20:23:04.738Z,19.50
2022-10-13T20:25:32.004Z,19.38
2022-10-13T20:27:59.225Z,20.15
2022-10-13T20:30:26.698Z,21.00
2022-10-13T20:32:54.269Z,19.75
2022-10-13T20:35:21.540Z,18.17
2022-10-13T20:37:48.706Z,17.88
2022-10-13T20:40:15.890Z,18.67
2022-10-13T20:42:43.088Z,19.27
2022-10-13T20:45:10.590Z,19.98
2022-10-13T20:47:37.754Z,17.15
2022-10-13T20:50:08.437Z,19.40
2022-10-13T20:52:35.647Z,20.25
2022-10-13T20:55:03.053Z,19.33
2022-10-13T20:57:30.206Z,19.23
2022-10-13T20:59:57.380Z,18.63
2022-10-13T21:02:24.641Z,20.25
2022-10-13T21:04:51.829Z,22.52
2022-10-13T21:07:19.264Z,26.05
2022-10-13T21:09:49.154Z,25.98
2022-10-13T21:12:20.067Z,27.83
2022-10-13T21:14:47.308Z,26.00
2022-10-13T21:17:14.498Z,26.20
2022-10-13T21:19:41.620Z,24.65
2022-10-13T21:22:08.782Z,26.92
2022-10-13T21:24:36.477Z,26.08
2022-10-13T21:27:03.720Z,28.63
2022-10-13T21:29:30.889Z,25.92
2022-10-13T21:31:58.152Z,27.40
2022-10-13T21:34:25.333Z,24.80
2022-10-13T21:36:52.819Z,25.42
2022-10-13T21:39:19.985Z,24.95
2022-10-13T21:41:47.221Z,26.08
2022-10-13T21:44:14.813Z,23.33
2022-10-13T21:46:42.091Z,26.50
2022-10-13T21:49:10.297Z,27.10
2022-10-13T21:51:38.621Z,26.67
2022-10-13T21:54:07.061Z,23.27
2022-10-13T21:56:34.796Z,25.75
2022-10-13T21:59:02.315Z,24.95
2022-10-13T22:01:29.549Z,25.95
2022-10-13T22:03:58.676Z,24.00
2022-10-13T22:06:26.581Z,24.17
2022-10-13T22:08:54.714Z,23.45
2022-10-13T22:11:23.231Z,23.02
2022-10-13T22:13:50.404Z,22.60
2022-10-13T22:16:19.638Z,23.52
2022-10-13T22:18:47.045Z,24.25
2022-10-13T22:21:16.907Z,23.27
2022-10-13T22:23:44.716Z,23.15
2022-10-13T22:26:11.932Z,25.05
2022-10-13T22:28:39.602Z,24.52
2022-10-13T22:31:07.589Z,24.77
2022-10-13T22:33:35.632Z,23.00
2022-10-13T22:36:07.087Z,25.23
2022-10-13T22:38:34.226Z,23.95
2022-10-13T22:41:05.508Z,22.85
2022-10-13T22:43:32.834Z,23.58
2022-10-13T22:46:01.912Z,21.80
2022-10-13T22:48:29.359Z,20.75
2022-10-13T22:50:56.537Z,21.88
2022-10-13T22:53:26.921Z,21.90
2022-10-13T22:55:54.089Z,20.73
2022-10-13T22:58:21.522Z,20.92
2022-10-13T23:00:48.852Z,20.58
2022-10-13T23:03:16.138Z,21.95
2022-10-13T23:05:43.976Z,21.40
2022-10-13T23:08:11.208Z,21.20
2022-10-13T23:10:38.769Z,20.80
2022-10-13T23:13:06.260Z,20.90
2022-10-13T23:15:33.601Z,19.50
2022-10-13T23:18:00.856Z,20.38
2022-10-13T23:20:28.006Z,19.63
2022-10-13T23:22:55.134Z,19.75
2022-10-13T23:25:22.320Z,20.88
2022-10-13T23:27:49.498Z,20.15
2022-10-13T23:30:16.716Z,21.05
2022-10-13T23:32:43.878Z,20.60
2022-10-13T23:35:11.309Z,22.33
2022-10-13T23:37:38.444Z,20.00
2022-10-13T23:40:05.869Z,20.23
2022-10-13T23:42:32.971Z,19.50
2022-10-13T23:45:00.109Z,20.27
2022-10-13T23:47:27.728Z,21.13
2022-10-13T23:49:55.100Z,20.75
2022-10-13T23:52:22.293Z,20.42
2022-10-13T23:54:49.458Z,20.45
2022-10-13T23:57:16.659Z,19.58
2022-10-13T23:59:43.791Z,19.65
